sensor_id;sensor_type;location;lat;lon;timestamp;temperature;humidity
5870;DHT22;2961;47.702;9.410;2022-12-16T00:00:21;-0.10;99.90
5870;DHT22;2961;47.702;9.410;2022-12-16T00:02:48;-0.10;99.90
5870;DHT22;2961;47.702;9.410;2022-12-16T00:05:17;0.00;99.90
5870;DHT22;2961;47.702;9.410;2022-12-16T00:07:44;0.10;99.90
5870;DHT22;2961;47.702;9.410;2022-12-16T00:10:11;0.10;99.90
5870;DHT22;2961;47.702;9.410;2022-12-16T00:12:38;0.10;99.90
5870;DHT22;2961;47.702;9.410;2022-12-16T00:15:05;0.00;99.90
5870;DHT22;2961;47.702;9.410;2022-12-16T00:17:32;0.10;99.90
5870;DHT22;2961;47.702;9.410;2022-12-16T00:20:00;0.10;99.90
5870;DHT22;2961;47.702;9.410;2022-12-16T00:22:29;0.20;99.90
5870;DHT22;2961;47.702;9.410;2022-12-16T00:24:56;0.20;99.90
5870;DHT22;2961;47.702;9.410;2022-12-16T00:27:23;0.20;99.90
5870;DHT22;2961;47.702;9.410;2022-12-16T00:29:49;0.30;99.90
5870;DHT22;2961;47.702;9.410;2022-12-16T00:32:16;0.20;99.90
5870;DHT22;2961;47.702;9.410;2022-12-16T00:34:43;0.20;99.90
5870;DHT22;2961;47.702;9.410;2022-12-16T00:37:10;0.10;99.90
5870;DHT22;2961;47.702;9.410;2022-12-16T00:39:39;0.10;99.90
5870;DHT22;2961;47.702;9.410;2022-12-16T00:42:05;0.00;99.90
5870;DHT22;2961;47.702;9.410;2022-12-16T00:44:32;0.00;99.90
5870;DHT22;2961;47.702;9.410;2022-12-16T00:46:59;0.00;99.90
5870;DHT22;2961;47.702;9.410;2022-12-16T00:49:26;0.00;99.90
5870;DHT22;2961;47.702;9.410;2022-12-16T00:51:52;0.10;99.90
5870;DHT22;2961;47.702;9.410;2022-12-16T00:54:19;0.20;99.90
5870;DHT22;2961;47.702;9.410;2022-12-16T00:56:47;0.20;99.90
5870;DHT22;2961;47.702;9.410;2022-12-16T00:59:14;0.10;99.90
5870;DHT22;2961;47.702;9.410;2022-12-16T01:01:41;0.10;99.90
5870;DHT22;2961;47.702;9.410;2022-12-16T01:04:08;0.10;99.90
5870;DHT22;2961;47.702;9.410;2022-12-16T01:06:35;0.10;99.90
5870;DHT22;2961;47.702;9.410;2022-12-16T01:09:02;0.10;99.90
5870;DHT22;2961;47.702;9.410;2022-12-16T01:11:29;0.10;99.90
5870;DHT22;2961;47.702;9.410;2022-12-16T01:13:58;0.10;99.90
5870;DHT22;2961;47.702;9.410;2022-12-16T01:16:24;0.10;99.90
5870;DHT22;2961;47.702;9.410;2022-12-16T01:18:51;0.00;99.90
5870;DHT22;2961;47.702;9.410;2022-12-16T01:21:21;0.10;99.90
5870;DHT22;2961;47.702;9.410;2022-12-16T01:23:48;0.00;99.90
5870;DHT22;2961;47.702;9.410;2022-12-16T01:26:16;0.00;99.90
5870;DHT22;2961;47.702;9.410;2022-12-16T01:28:43;0.00;99.90
5870;DHT22;2961;47.702;9.410;2022-12-16T01:31:12;0.00;99.90
5870;DHT22;2961;47.702;9.410;2022-12-16T01:33:40;0.00;99.90
5870;DHT22;2961;47.702;9.410;2022-12-16T01:36:08;0.00;99.90
5870;DHT22;2961;47.702;9.410;2022-12-16T01:38:35;0.00;99.90
5870;DHT22;2961;47.702;9.410;2022-12-16T01:41:02;0.00;99.90
5870;DHT22;2961;47.702;9.410;2022-12-16T01:43:32;0.00;99.90
5870;DHT22;2961;47.702;9.410;2022-12-16T01:46:02;0.00;99.90
5870;DHT22;2961;47.702;9.410;2022-12-16T01:48:39;0.00;99.90
5870;DHT22;2961;47.702;9.410;2022-12-16T01:51:10;0.00;99.90
5870;DHT22;2961;47.702;9.410;2022-12-16T01:53:38;0.00;99.90
5870;DHT22;2961;47.702;9.410;2022-12-16T01:56:08;0.00;99.90
5870;DHT22;2961;47.702;9.410;2022-12-16T01:58:39;0.00;99.90
5870;DHT22;2961;47.702;9.410;2022-12-16T02:01:07;0.10;99.90
5870;DHT22;2961;47.702;9.410;2022-12-16T02:03:36;0.10;99.90
5870;DHT22;2961;47.702;9.410;2022-12-16T02:06:05;0.10;99.90
5870;DHT22;2961;47.702;9.410;2022-12-16T02:08:32;0.10;99.90
5870;DHT22;2961;47.702;9.410;2022-12-16T02:11:14;0.00;99.90
5870;DHT22;2961;47.702;9.410;2022-12-16T02:13:57;0.00;99.90
5870;DHT22;2961;47.702;9.410;2022-12-16T02:16:29;0.00;99.90
5870;DHT22;2961;47.702;9.410;2022-12-16T02:19:04;0.00;99.90
5870;DHT22;2961;47.702;9.410;2022-12-16T02:21:46;0.00;99.90
5870;DHT22;2961;47.702;9.410;2022-12-16T02:30:38;0.00;99.90
5870;DHT22;2961;47.702;9.410;2022-12-16T02:33:17;-0.10;99.90
5870;DHT22;2961;47.702;9.410;2022-12-16T02:35:51;0.00;99.90
5870;DHT22;2961;47.702;9.410;2022-12-16T02:38:24;-0.10;99.90
5870;DHT22;2961;47.702;9.410;2022-12-16T02:40:56;-0.10;99.90
5870;DHT22;2961;47.702;9.410;2022-12-16T02:43:49;-0.10;99.90
5870;DHT22;2961;47.702;9.410;2022-12-16T02:46:20;-0.10;99.90
5870;DHT22;2961;47.702;9.410;2022-12-16T02:48:48;0.00;99.90
5870;DHT22;2961;47.702;9.410;2022-12-16T02:51:15;-0.10;99.90
5870;DHT22;2961;47.702;9.410;2022-12-16T02:53:44;-0.10;99.90
5870;DHT22;2961;47.702;9.410;2022-12-16T02:56:21;-0.10;99.90
5870;DHT22;2961;47.702;9.410;2022-12-16T02:58:55;-0.10;99.90
5870;DHT22;2961;47.702;9.410;2022-12-16T03:01:31;-0.10;99.90
5870;DHT22;2961;47.702;9.410;2022-12-16T03:04:02;0.00;99.90
5870;DHT22;2961;47.702;9.410;2022-12-16T03:06:31;0.00;99.90
5870;DHT22;2961;47.702;9.410;2022-12-16T03:09:02;0.00;99.90
5870;DHT22;2961;47.702;9.410;2022-12-16T03:11:34;-0.10;99.90
5870;DHT22;2961;47.702;9.410;2022-12-16T03:14:04;-0.10;99.90
5870;DHT22;2961;47.702;9.410;2022-12-16T03:16:32;0.00;99.90
5870;DHT22;2961;47.702;9.410;2022-12-16T03:19:03;0.00;99.90
5870;DHT22;2961;47.702;9.410;2022-12-16T03:21:37;0.10;99.90
5870;DHT22;2961;47.702;9.410;2022-12-16T03:24:06;0.10;99.90
5870;DHT22;2961;47.702;9.410;2022-12-16T03:26:38;0.00;99.90
5870;DHT22;2961;47.702;9.410;2022-12-16T03:29:09;0.00;99.90
5870;DHT22;2961;47.702;9.410;2022-12-16T03:31:41;-0.10;99.90
5870;DHT22;2961;47.702;9.410;2022-12-16T03:34:14;-0.10;99.90
5870;DHT22;2961;47.702;9.410;2022-12-16T03:36:44;-0.10;99.90
5870;DHT22;2961;47.702;9.410;2022-12-16T03:39:14;-0.10;99.90
5870;DHT22;2961;47.702;9.410;2022-12-16T03:41:43;0.00;99.90
5870;DHT22;2961;47.702;9.410;2022-12-16T03:44:12;0.00;99.90
5870;DHT22;2961;47.702;9.410;2022-12-16T03:46:40;-0.10;99.90
5870;DHT22;2961;47.702;9.410;2022-12-16T03:49:07;-0.10;99.90
5870;DHT22;2961;47.702;9.410;2022-12-16T03:51:34;-0.10;99.90
5870;DHT22;2961;47.702;9.410;2022-12-16T03:54:00;-0.20;99.90
5870;DHT22;2961;47.702;9.410;2022-12-16T03:56:27;-0.20;99.90
5870;DHT22;2961;47.702;9.410;2022-12-16T03:58:54;-0.10;99.90
5870;DHT22;2961;47.702;9.410;2022-12-16T04:01:21;-0.10;99.90
5870;DHT22;2961;47.702;9.410;2022-12-16T04:03:49;0.00;99.90
5870;DHT22;2961;47.702;9.410;2022-12-16T04:06:16;0.00;99.90
5870;DHT22;2961;47.702;9.410;2022-12-16T04:08:43;-0.10;99.90
5870;DHT22;2961;47.702;9.410;2022-12-16T04:11:10;-0.10;99.90
5870;DHT22;2961;47.702;9.410;2022-12-16T04:13:55;0.00;99.90
5870;DHT22;2961;47.702;9.410;2022-12-16T04:16:39;0.00;99.90
5870;DHT22;2961;47.702;9.410;2022-12-16T04:19:27;-0.10;99.90
5870;DHT22;2961;47.702;9.410;2022-12-16T04:22:13;-0.10;99.90
5870;DHT22;2961;47.702;9.410;2022-12-16T04:25:03;-0.20;99.90
5870;DHT22;2961;47.702;9.410;2022-12-16T04:27:30;-0.20;99.90
5870;DHT22;2961;47.702;9.410;2022-12-16T04:29:57;-0.20;99.90
5870;DHT22;2961;47.702;9.410;2022-12-16T04:32:41;-0.20;99.90
5870;DHT22;2961;47.702;9.410;2022-12-16T04:35:27;-0.20;99.90
5870;DHT22;2961;47.702;9.410;2022-12-16T04:38:11;-0.10;99.90
5870;DHT22;2961;47.702;9.410;2022-12-16T04:40:55;-0.10;99.90
5870;DHT22;2961;47.702;9.410;2022-12-16T04:43:40;-0.10;99.90
5870;DHT22;2961;47.702;9.410;2022-12-16T04:46:24;-0.20;99.90
5870;DHT22;2961;47.702;9.410;2022-12-16T04:49:08;-0.20;99.90
5870;DHT22;2961;47.702;9.410;2022-12-16T04:51:53;-0.30;99.90
5870;DHT22;2961;47.702;9.410;2022-12-16T04:54:38;-0.20;99.90
5870;DHT22;2961;47.702;9.410;2022-12-16T04:57:22;-0.30;99.90
5870;DHT22;2961;47.702;9.410;2022-12-16T05:00:07;-0.20;99.90
5870;DHT22;2961;47.702;9.410;2022-12-16T05:02:52;-0.30;99.90
5870;DHT22;2961;47.702;9.410;2022-12-16T05:05:36;-0.30;99.90
5870;DHT22;2961;47.702;9.410;2022-12-16T05:08:21;-0.30;99.90
5870;DHT22;2961;47.702;9.410;2022-12-16T05:11:05;-0.30;99.90
5870;DHT22;2961;47.702;9.410;2022-12-16T05:13:50;-0.30;99.90
5870;DHT22;2961;47.702;9.410;2022-12-16T05:16:35;-0.30;99.90
5870;DHT22;2961;47.702;9.410;2022-12-16T05:19:19;-0.30;99.90
5870;DHT22;2961;47.702;9.410;2022-12-16T05:22:03;-0.20;99.90
5870;DHT22;2961;47.702;9.410;2022-12-16T05:25:04;-0.30;99.90
5870;DHT22;2961;47.702;9.410;2022-12-16T05:27:49;-0.30;99.90
5870;DHT22;2961;47.702;9.410;2022-12-16T05:30:34;-0.30;99.90
5870;DHT22;2961;47.702;9.410;2022-12-16T05:33:18;-0.20;99.90
5870;DHT22;2961;47.702;9.410;2022-12-16T05:36:02;-0.30;99.90
5870;DHT22;2961;47.702;9.410;2022-12-16T05:38:47;-0.30;99.90
5870;DHT22;2961;47.702;9.410;2022-12-16T05:41:32;-0.30;99.90
5870;DHT22;2961;47.702;9.410;2022-12-16T05:44:16;-0.30;99.90
5870;DHT22;2961;47.702;9.410;2022-12-16T05:47:01;-0.30;99.90
5870;DHT22;2961;47.702;9.410;2022-12-16T05:49:45;-0.30;99.90
5870;DHT22;2961;47.702;9.410;2022-12-16T05:52:29;-0.30;99.90
5870;DHT22;2961;47.702;9.410;2022-12-16T05:55:13;-0.30;99.90
5870;DHT22;2961;47.702;9.410;2022-12-16T05:57:59;-0.30;99.90
5870;DHT22;2961;47.702;9.410;2022-12-16T06:00:43;-0.30;99.90
5870;DHT22;2961;47.702;9.410;2022-12-16T06:03:28;-0.30;99.90
5870;DHT22;2961;47.702;9.410;2022-12-16T06:06:12;-0.30;99.90
5870;DHT22;2961;47.702;9.410;2022-12-16T06:08:56;-0.30;99.90
5870;DHT22;2961;47.702;9.410;2022-12-16T06:11:40;-0.30;99.90
5870;DHT22;2961;47.702;9.410;2022-12-16T06:14:26;-0.30;99.90
5870;DHT22;2961;47.702;9.410;2022-12-16T06:17:10;-0.40;99.90
5870;DHT22;2961;47.702;9.410;2022-12-16T06:19:54;-0.40;99.90
5870;DHT22;2961;47.702;9.410;2022-12-16T06:22:40;-0.40;99.90
5870;DHT22;2961;47.702;9.410;2022-12-16T06:25:25;-0.40;99.90
5870;DHT22;2961;47.702;9.410;2022-12-16T06:28:09;-0.40;99.90
5870;DHT22;2961;47.702;9.410;2022-12-16T06:30:55;-0.40;99.90
5870;DHT22;2961;47.702;9.410;2022-12-16T06:33:39;-0.40;99.90
5870;DHT22;2961;47.702;9.410;2022-12-16T06:36:26;-0.40;99.90
5870;DHT22;2961;47.702;9.410;2022-12-16T06:39:10;-0.50;99.90
5870;DHT22;2961;47.702;9.410;2022-12-16T06:41:55;-0.40;99.90
5870;DHT22;2961;47.702;9.410;2022-12-16T06:44:39;-0.40;99.90
5870;DHT22;2961;47.702;9.410;2022-12-16T06:47:24;-0.50;99.90
5870;DHT22;2961;47.702;9.410;2022-12-16T06:50:08;-0.40;99.90
5870;DHT22;2961;47.702;9.410;2022-12-16T06:52:53;-0.40;99.90
5870;DHT22;2961;47.702;9.410;2022-12-16T06:55:37;-0.40;99.90
5870;DHT22;2961;47.702;9.410;2022-12-16T06:58:21;-0.40;99.90
5870;DHT22;2961;47.702;9.410;2022-12-16T07:01:05;-0.40;99.90
5870;DHT22;2961;47.702;9.410;2022-12-16T07:03:51;-0.40;99.90
5870;DHT22;2961;47.702;9.410;2022-12-16T07:06:35;-0.50;99.90
5870;DHT22;2961;47.702;9.410;2022-12-16T07:09:19;-0.50;99.90
5870;DHT22;2961;47.702;9.410;2022-12-16T07:12:04;-0.40;99.90
5870;DHT22;2961;47.702;9.410;2022-12-16T07:14:59;-0.40;99.90
5870;DHT22;2961;47.702;9.410;2022-12-16T07:17:44;-0.50;99.90
5870;DHT22;2961;47.702;9.410;2022-12-16T07:20:30;-0.50;99.90
5870;DHT22;2961;47.702;9.410;2022-12-16T07:23:14;-0.40;99.90
5870;DHT22;2961;47.702;9.410;2022-12-16T07:25:59;-0.40;99.90
5870;DHT22;2961;47.702;9.410;2022-12-16T07:28:43;-0.40;99.90
5870;DHT22;2961;47.702;9.410;2022-12-16T07:31:28;-0.40;99.90
5870;DHT22;2961;47.702;9.410;2022-12-16T07:34:12;-0.40;99.90
5870;DHT22;2961;47.702;9.410;2022-12-16T07:36:57;-0.30;99.90
5870;DHT22;2961;47.702;9.410;2022-12-16T07:39:41;-0.30;99.90
5870;DHT22;2961;47.702;9.410;2022-12-16T07:42:26;-0.30;99.90
5870;DHT22;2961;47.702;9.410;2022-12-16T07:45:10;-0.30;99.90
5870;DHT22;2961;47.702;9.410;2022-12-16T07:47:55;-0.30;99.90
5870;DHT22;2961;47.702;9.410;2022-12-16T07:50:40;-0.30;99.90
5870;DHT22;2961;47.702;9.410;2022-12-16T07:53:26;-0.30;99.90
5870;DHT22;2961;47.702;9.410;2022-12-16T07:56:10;-0.30;99.90
5870;DHT22;2961;47.702;9.410;2022-12-16T07:58:55;-0.20;99.90
5870;DHT22;2961;47.702;9.410;2022-12-16T08:01:51;-0.30;99.90
5870;DHT22;2961;47.702;9.410;2022-12-16T08:04:35;-0.20;99.90
5870;DHT22;2961;47.702;9.410;2022-12-16T08:07:20;-0.20;99.90
5870;DHT22;2961;47.702;9.410;2022-12-16T08:10:06;-0.20;99.90
5870;DHT22;2961;47.702;9.410;2022-12-16T08:12:52;-0.10;99.90
5870;DHT22;2961;47.702;9.410;2022-12-16T08:15:41;-0.10;99.90
5870;DHT22;2961;47.702;9.410;2022-12-16T08:18:25;0.00;99.90
5870;DHT22;2961;47.702;9.410;2022-12-16T08:21:09;0.00;99.90
5870;DHT22;2961;47.702;9.410;2022-12-16T08:23:53;0.00;99.90
5870;DHT22;2961;47.702;9.410;2022-12-16T08:26:39;0.00;99.90
5870;DHT22;2961;47.702;9.410;2022-12-16T08:29:20;0.00;99.90
5870;DHT22;2961;47.702;9.410;2022-12-16T08:32:04;0.00;99.90
5870;DHT22;2961;47.702;9.410;2022-12-16T08:34:48;0.00;99.90
5870;DHT22;2961;47.702;9.410;2022-12-16T08:37:32;0.00;99.90
5870;DHT22;2961;47.702;9.410;2022-12-16T08:40:16;0.00;99.90
5870;DHT22;2961;47.702;9.410;2022-12-16T08:43:02;0.10;99.90
5870;DHT22;2961;47.702;9.410;2022-12-16T08:45:47;0.10;99.90
5870;DHT22;2961;47.702;9.410;2022-12-16T08:48:31;0.10;99.90
5870;DHT22;2961;47.702;9.410;2022-12-16T08:51:15;0.10;99.90
5870;DHT22;2961;47.702;9.410;2022-12-16T08:54:11;0.20;99.90
5870;DHT22;2961;47.702;9.410;2022-12-16T08:56:56;0.20;99.90
5870;DHT22;2961;47.702;9.410;2022-12-16T08:59:42;0.20;99.90
5870;DHT22;2961;47.702;9.410;2022-12-16T09:02:26;0.20;99.90
5870;DHT22;2961;47.702;9.410;2022-12-16T09:05:15;0.30;99.90
5870;DHT22;2961;47.702;9.410;2022-12-16T09:08:00;0.30;99.90
5870;DHT22;2961;47.702;9.410;2022-12-16T09:10:45;0.30;99.90
5870;DHT22;2961;47.702;9.410;2022-12-16T09:13:29;0.40;99.90
5870;DHT22;2961;47.702;9.410;2022-12-16T09:16:15;0.40;99.90
5870;DHT22;2961;47.702;9.410;2022-12-16T09:18:59;0.40;99.90
5870;DHT22;2961;47.702;9.410;2022-12-16T09:21:44;0.40;99.90
5870;DHT22;2961;47.702;9.410;2022-12-16T09:24:28;0.50;99.90
5870;DHT22;2961;47.702;9.410;2022-12-16T09:27:12;0.50;99.90
5870;DHT22;2961;47.702;9.410;2022-12-16T09:29:56;0.60;99.90
5870;DHT22;2961;47.702;9.410;2022-12-16T09:32:42;0.60;99.90
5870;DHT22;2961;47.702;9.410;2022-12-16T09:35:26;0.60;99.90
5870;DHT22;2961;47.702;9.410;2022-12-16T09:38:11;0.60;99.90
5870;DHT22;2961;47.702;9.410;2022-12-16T09:40:55;0.60;99.90
5870;DHT22;2961;47.702;9.410;2022-12-16T09:43:50;0.60;99.90
5870;DHT22;2961;47.702;9.410;2022-12-16T09:46:51;0.60;99.90
5870;DHT22;2961;47.702;9.410;2022-12-16T09:49:45;0.70;99.90
5870;DHT22;2961;47.702;9.410;2022-12-16T09:52:27;0.80;99.90
5870;DHT22;2961;47.702;9.410;2022-12-16T09:55:21;0.80;99.90
5870;DHT22;2961;47.702;9.410;2022-12-16T09:58:07;0.80;99.90
5870;DHT22;2961;47.702;9.410;2022-12-16T10:00:52;0.90;99.90
5870;DHT22;2961;47.702;9.410;2022-12-16T10:03:38;0.90;99.90
5870;DHT22;2961;47.702;9.410;2022-12-16T10:06:31;0.90;99.90
5870;DHT22;2961;47.702;9.410;2022-12-16T10:09:25;0.90;99.90
5870;DHT22;2961;47.702;9.410;2022-12-16T10:12:16;0.90;99.90
5870;DHT22;2961;47.702;9.410;2022-12-16T10:15:14;0.90;99.90
5870;DHT22;2961;47.702;9.410;2022-12-16T10:18:09;0.90;99.90
5870;DHT22;2961;47.702;9.410;2022-12-16T10:20:57;0.90;99.90
5870;DHT22;2961;47.702;9.410;2022-12-16T10:23:48;0.80;99.90
5870;DHT22;2961;47.702;9.410;2022-12-16T10:26:42;0.90;99.90
5870;DHT22;2961;47.702;9.410;2022-12-16T10:29:31;1.00;99.90
5870;DHT22;2961;47.702;9.410;2022-12-16T10:32:23;0.90;99.90
5870;DHT22;2961;47.702;9.410;2022-12-16T10:35:23;1.00;99.90
5870;DHT22;2961;47.702;9.410;2022-12-16T10:38:19;1.00;99.90
5870;DHT22;2961;47.702;9.410;2022-12-16T10:41:07;1.00;99.90
5870;DHT22;2961;47.702;9.410;2022-12-16T10:43:53;1.10;99.90
5870;DHT22;2961;47.702;9.410;2022-12-16T10:46:38;1.10;99.90
5870;DHT22;2961;47.702;9.410;2022-12-16T10:49:23;1.10;99.90
5870;DHT22;2961;47.702;9.410;2022-12-16T10:52:11;1.10;99.90
5870;DHT22;2961;47.702;9.410;2022-12-16T10:55:01;1.00;99.90
5870;DHT22;2961;47.702;9.410;2022-12-16T10:57:55;1.00;99.90
5870;DHT22;2961;47.702;9.410;2022-12-16T11:00:44;1.00;99.90
5870;DHT22;2961;47.702;9.410;2022-12-16T11:03:30;0.90;99.90
5870;DHT22;2961;47.702;9.410;2022-12-16T11:06:18;1.00;99.90
5870;DHT22;2961;47.702;9.410;2022-12-16T11:09:24;0.90;99.90
5870;DHT22;2961;47.702;9.410;2022-12-16T11:12:24;0.90;99.90
5870;DHT22;2961;47.702;9.410;2022-12-16T11:15:23;0.80;99.90
5870;DHT22;2961;47.702;9.410;2022-12-16T11:18:10;0.90;99.90
5870;DHT22;2961;47.702;9.410;2022-12-16T11:21:09;0.80;99.90
5870;DHT22;2961;47.702;9.410;2022-12-16T11:24:05;0.90;99.90
5870;DHT22;2961;47.702;9.410;2022-12-16T11:26:53;1.00;99.90
5870;DHT22;2961;47.702;9.410;2022-12-16T11:29:48;1.00;99.90
5870;DHT22;2961;47.702;9.410;2022-12-16T11:32:36;1.00;99.90
5870;DHT22;2961;47.702;9.410;2022-12-16T11:35:24;1.00;99.90
5870;DHT22;2961;47.702;9.410;2022-12-16T11:38:14;1.00;99.90
5870;DHT22;2961;47.702;9.410;2022-12-16T11:41:20;1.00;99.90
5870;DHT22;2961;47.702;9.410;2022-12-16T11:44:09;1.00;99.90
5870;DHT22;2961;47.702;9.410;2022-12-16T11:46:56;1.10;99.90
5870;DHT22;2961;47.702;9.410;2022-12-16T11:49:41;1.20;99.90
5870;DHT22;2961;47.702;9.410;2022-12-16T11:52:25;1.30;99.90
5870;DHT22;2961;47.702;9.410;2022-12-16T11:55:18;1.30;99.90
5870;DHT22;2961;47.702;9.410;2022-12-16T11:58:11;1.20;99.90
5870;DHT22;2961;47.702;9.410;2022-12-16T12:01:10;1.20;99.90
5870;DHT22;2961;47.702;9.410;2022-12-16T12:03:57;1.20;99.90
5870;DHT22;2961;47.702;9.410;2022-12-16T12:07:06;1.10;99.90
5870;DHT22;2961;47.702;9.410;2022-12-16T12:09:58;1.00;99.90
5870;DHT22;2961;47.702;9.410;2022-12-16T12:12:50;1.00;99.90
5870;DHT22;2961;47.702;9.410;2022-12-16T12:15:39;0.90;99.90
5870;DHT22;2961;47.702;9.410;2022-12-16T12:18:35;0.90;99.90
5870;DHT22;2961;47.702;9.410;2022-12-16T12:21:23;0.90;99.90
5870;DHT22;2961;47.702;9.410;2022-12-16T12:24:21;1.00;99.90
5870;DHT22;2961;47.702;9.410;2022-12-16T12:27:16;1.00;99.90
5870;DHT22;2961;47.702;9.410;2022-12-16T12:30:05;1.00;99.90
5870;DHT22;2961;47.702;9.410;2022-12-16T12:33:04;1.10;99.90
5870;DHT22;2961;47.702;9.410;2022-12-16T12:35:58;1.10;99.90
5870;DHT22;2961;47.702;9.410;2022-12-16T12:38:54;1.00;99.90
5870;DHT22;2961;47.702;9.410;2022-12-16T12:41:56;1.00;99.90
5870;DHT22;2961;47.702;9.410;2022-12-16T12:44:52;1.00;99.90
5870;DHT22;2961;47.702;9.410;2022-12-16T12:47:43;0.90;99.90
5870;DHT22;2961;47.702;9.410;2022-12-16T12:50:33;0.80;99.90
5870;DHT22;2961;47.702;9.410;2022-12-16T12:53:38;0.80;99.90
5870;DHT22;2961;47.702;9.410;2022-12-16T12:56:34;0.80;99.90
5870;DHT22;2961;47.702;9.410;2022-12-16T12:59:44;0.80;99.90
5870;DHT22;2961;47.702;9.410;2022-12-16T13:02:42;0.80;99.90
5870;DHT22;2961;47.702;9.410;2022-12-16T13:05:34;0.80;99.90
5870;DHT22;2961;47.702;9.410;2022-12-16T13:08:40;0.70;99.90
5870;DHT22;2961;47.702;9.410;2022-12-16T13:11:25;0.70;99.90
5870;DHT22;2961;47.702;9.410;2022-12-16T13:17:24;0.60;99.90
5870;DHT22;2961;47.702;9.410;2022-12-16T13:20:34;0.60;99.90
5870;DHT22;2961;47.702;9.410;2022-12-16T13:23:28;0.60;99.90
5870;DHT22;2961;47.702;9.410;2022-12-16T13:26:21;0.60;99.90
5870;DHT22;2961;47.702;9.410;2022-12-16T13:29:16;0.50;99.90
5870;DHT22;2961;47.702;9.410;2022-12-16T13:32:03;0.60;99.90
5870;DHT22;2961;47.702;9.410;2022-12-16T13:35:03;0.50;99.90
5870;DHT22;2961;47.702;9.410;2022-12-16T13:37:52;0.40;99.90
5870;DHT22;2961;47.702;9.410;2022-12-16T13:40:48;0.40;99.90
5870;DHT22;2961;47.702;9.410;2022-12-16T13:43:46;0.30;99.90
5870;DHT22;2961;47.702;9.410;2022-12-16T13:46:40;0.40;99.90
5870;DHT22;2961;47.702;9.410;2022-12-16T13:49:43;0.40;99.90
5870;DHT22;2961;47.702;9.410;2022-12-16T13:52:37;0.40;99.90
5870;DHT22;2961;47.702;9.410;2022-12-16T13:55:27;0.40;99.90
5870;DHT22;2961;47.702;9.410;2022-12-16T13:58:20;0.30;99.90
5870;DHT22;2961;47.702;9.410;2022-12-16T14:01:11;0.30;99.90
5870;DHT22;2961;47.702;9.410;2022-12-16T14:03:57;0.40;99.90
5870;DHT22;2961;47.702;9.410;2022-12-16T14:06:43;0.40;99.90
5870;DHT22;2961;47.702;9.410;2022-12-16T14:09:33;0.40;99.90
5870;DHT22;2961;47.702;9.410;2022-12-16T14:12:38;0.40;99.90
5870;DHT22;2961;47.702;9.410;2022-12-16T14:15:28;0.40;99.90
5870;DHT22;2961;47.702;9.410;2022-12-16T14:18:23;0.40;99.90
5870;DHT22;2961;47.702;9.410;2022-12-16T14:21:12;0.40;99.90
5870;DHT22;2961;47.702;9.410;2022-12-16T14:24:02;0.30;99.90
5870;DHT22;2961;47.702;9.410;2022-12-16T14:26:49;0.30;99.90
5870;DHT22;2961;47.702;9.410;2022-12-16T14:29:34;0.30;99.90
5870;DHT22;2961;47.702;9.410;2022-12-16T14:32:20;0.30;99.90
5870;DHT22;2961;47.702;9.410;2022-12-16T14:35:12;0.20;99.90
5870;DHT22;2961;47.702;9.410;2022-12-16T14:37:58;0.20;99.90
5870;DHT22;2961;47.702;9.410;2022-12-16T14:40:55;0.10;99.90
5870;DHT22;2961;47.702;9.410;2022-12-16T14:43:42;0.10;99.90
5870;DHT22;2961;47.702;9.410;2022-12-16T14:46:28;0.10;99.90
5870;DHT22;2961;47.702;9.410;2022-12-16T14:49:18;0.10;99.90
5870;DHT22;2961;47.702;9.410;2022-12-16T14:52:15;0.10;99.90
5870;DHT22;2961;47.702;9.410;2022-12-16T14:55:08;0.00;99.90
5870;DHT22;2961;47.702;9.410;2022-12-16T14:58:01;0.00;99.90
5870;DHT22;2961;47.702;9.410;2022-12-16T15:00:48;0.00;99.90
5870;DHT22;2961;47.702;9.410;2022-12-16T15:03:34;0.00;99.90
5870;DHT22;2961;47.702;9.410;2022-12-16T15:06:24;0.00;99.90
5870;DHT22;2961;47.702;9.410;2022-12-16T15:09:25;0.00;99.90
5870;DHT22;2961;47.702;9.410;2022-12-16T15:12:11;0.00;99.90
5870;DHT22;2961;47.702;9.410;2022-12-16T15:14:57;0.00;99.90
5870;DHT22;2961;47.702;9.410;2022-12-16T15:17:48;-0.10;99.90
5870;DHT22;2961;47.702;9.410;2022-12-16T15:20:35;-0.10;99.90
5870;DHT22;2961;47.702;9.410;2022-12-16T15:23:22;-0.10;99.90
5870;DHT22;2961;47.702;9.410;2022-12-16T15:26:07;-0.10;99.90
5870;DHT22;2961;47.702;9.410;2022-12-16T15:28:52;0.00;99.90
5870;DHT22;2961;47.702;9.410;2022-12-16T15:31:39;-0.10;99.90
5870;DHT22;2961;47.702;9.410;2022-12-16T15:34:28;-0.10;99.90
5870;DHT22;2961;47.702;9.410;2022-12-16T15:37:18;-0.10;99.90
5870;DHT22;2961;47.702;9.410;2022-12-16T15:40:04;-0.20;99.90
5870;DHT22;2961;47.702;9.410;2022-12-16T15:42:50;-0.20;99.90
5870;DHT22;2961;47.702;9.410;2022-12-16T15:45:34;-0.30;99.90
5870;DHT22;2961;47.702;9.410;2022-12-16T15:48:22;-0.40;99.90
5870;DHT22;2961;47.702;9.410;2022-12-16T15:51:21;-0.40;99.90
5870;DHT22;2961;47.702;9.410;2022-12-16T15:54:14;-0.40;99.90
5870;DHT22;2961;47.702;9.410;2022-12-16T15:56:58;-0.40;99.90
5870;DHT22;2961;47.702;9.410;2022-12-16T15:59:54;-0.50;99.90
5870;DHT22;2961;47.702;9.410;2022-12-16T16:02:45;-0.60;99.90
5870;DHT22;2961;47.702;9.410;2022-12-16T16:05:30;-0.50;99.90
5870;DHT22;2961;47.702;9.410;2022-12-16T16:08:16;-0.50;99.90
5870;DHT22;2961;47.702;9.410;2022-12-16T16:11:00;-0.50;99.90
5870;DHT22;2961;47.702;9.410;2022-12-16T16:13:45;-0.50;99.90
5870;DHT22;2961;47.702;9.410;2022-12-16T16:16:29;-0.60;99.90
5870;DHT22;2961;47.702;9.410;2022-12-16T16:19:20;-0.60;99.90
5870;DHT22;2961;47.702;9.410;2022-12-16T16:22:09;-0.60;99.90
5870;DHT22;2961;47.702;9.410;2022-12-16T16:24:55;-0.60;99.90
5870;DHT22;2961;47.702;9.410;2022-12-16T16:27:40;-0.60;99.90
5870;DHT22;2961;47.702;9.410;2022-12-16T16:30:24;-0.60;99.90
5870;DHT22;2961;47.702;9.410;2022-12-16T16:33:08;-0.60;99.90
5870;DHT22;2961;47.702;9.410;2022-12-16T16:35:52;-0.60;99.90
5870;DHT22;2961;47.702;9.410;2022-12-16T16:38:36;-0.70;99.90
5870;DHT22;2961;47.702;9.410;2022-12-16T16:41:22;-0.80;99.90
5870;DHT22;2961;47.702;9.410;2022-12-16T16:44:06;-0.80;99.90
5870;DHT22;2961;47.702;9.410;2022-12-16T16:46:47;-0.70;99.90
5870;DHT22;2961;47.702;9.410;2022-12-16T16:49:33;-0.80;99.90
5870;DHT22;2961;47.702;9.410;2022-12-16T16:52:20;-0.80;99.90
5870;DHT22;2961;47.702;9.410;2022-12-16T16:55:13;-0.80;99.90
5870;DHT22;2961;47.702;9.410;2022-12-16T16:58:00;-0.80;99.90
5870;DHT22;2961;47.702;9.410;2022-12-16T17:00:47;-0.80;99.90
5870;DHT22;2961;47.702;9.410;2022-12-16T17:03:31;-0.70;99.90
5870;DHT22;2961;47.702;9.410;2022-12-16T17:06:15;-0.60;99.90
5870;DHT22;2961;47.702;9.410;2022-12-16T17:09:00;-0.70;99.90
5870;DHT22;2961;47.702;9.410;2022-12-16T17:11:44;-0.70;99.90
5870;DHT22;2961;47.702;9.410;2022-12-16T17:14:29;-0.70;99.90
5870;DHT22;2961;47.702;9.410;2022-12-16T17:17:14;-0.70;99.90
5870;DHT22;2961;47.702;9.410;2022-12-16T17:19:58;-0.70;99.90
5870;DHT22;2961;47.702;9.410;2022-12-16T17:22:42;-0.80;99.90
5870;DHT22;2961;47.702;9.410;2022-12-16T17:25:26;-0.80;99.90
5870;DHT22;2961;47.702;9.410;2022-12-16T17:28:10;-0.90;99.90
5870;DHT22;2961;47.702;9.410;2022-12-16T17:30:56;-0.90;99.90
5870;DHT22;2961;47.702;9.410;2022-12-16T17:33:40;-0.90;99.90
5870;DHT22;2961;47.702;9.410;2022-12-16T17:36:24;-0.90;99.90
5870;DHT22;2961;47.702;9.410;2022-12-16T17:39:11;-0.90;99.90
5870;DHT22;2961;47.702;9.410;2022-12-16T17:41:56;-0.90;99.90
5870;DHT22;2961;47.702;9.410;2022-12-16T17:44:40;-1.00;99.90
5870;DHT22;2961;47.702;9.410;2022-12-16T17:47:25;-1.00;99.90
5870;DHT22;2961;47.702;9.410;2022-12-16T17:50:12;-1.00;99.90
5870;DHT22;2961;47.702;9.410;2022-12-16T17:52:58;-1.00;99.90
5870;DHT22;2961;47.702;9.410;2022-12-16T17:55:43;-1.00;99.90
5870;DHT22;2961;47.702;9.410;2022-12-16T17:58:30;-1.00;99.90
5870;DHT22;2961;47.702;9.410;2022-12-16T18:01:15;-1.10;99.90
5870;DHT22;2961;47.702;9.410;2022-12-16T18:04:00;-1.10;99.90